sensor_id;sensor_type;location;lat;lon;timestamp;pressure;altitude;pressure_sealevel;temperature;humidity
56719;BME280;42597;40.636;0.278;2023-04-23T00:01:16;96867.09;;;17.02;80.46
56719;BME280;42597;40.636;0.278;2023-04-23T00:03:43;96865.00;;;17.39;78.47
56719;BME280;42597;40.636;0.278;2023-04-23T00:06:09;96878.25;;;17.47;76.78
56719;BME280;42597;40.636;0.278;2023-04-23T00:08:39;96876.69;;;17.43;77.53
56719;BME280;42597;40.636;0.278;2023-04-23T00:11:06;96879.09;;;17.26;78.09
56719;BME280;42597;40.636;0.278;2023-04-23T00:13:32;96884.09;;;17.46;77.07
56719;BME280;42597;40.636;0.278;2023-04-23T00:15:58;96884.16;;;17.32;77.80
56719;BME280;42597;40.636;0.278;2023-04-23T00:18:24;96875.81;;;17.60;76.83
56719;BME280;42597;40.636;0.278;2023-04-23T00:20:50;96876.28;;;17.48;76.96
56719;BME280;42597;40.636;0.278;2023-04-23T00:23:16;96870.38;;;17.60;75.99
56719;BME280;42597;40.636;0.278;2023-04-23T00:25:42;96883.69;;;17.47;75.69
56719;BME280;42597;40.636;0.278;2023-04-23T00:28:08;96876.34;;;17.41;77.43
56719;BME280;42597;40.636;0.278;2023-04-23T00:30:34;96877.59;;;17.08;78.13
56719;BME280;42597;40.636;0.278;2023-04-23T00:32:59;96874.16;;;17.88;74.58
56719;BME280;42597;40.636;0.278;2023-04-23T00:35:25;96884.03;;;17.57;74.33
56719;BME280;42597;40.636;0.278;2023-04-23T00:37:51;96871.09;;;17.79;74.81
56719;BME280;42597;40.636;0.278;2023-04-23T00:40:17;96871.53;;;17.59;75.15
56719;BME280;42597;40.636;0.278;2023-04-23T00:42:43;96870.59;;;17.94;73.55
56719;BME280;42597;40.636;0.278;2023-04-23T00:45:10;96861.34;;;17.78;73.94
56719;BME280;42597;40.636;0.278;2023-04-23T00:47:37;96866.81;;;17.78;74.28
56719;BME280;42597;40.636;0.278;2023-04-23T00:50:05;96855.16;;;17.59;75.04
56719;BME280;42597;40.636;0.278;2023-04-23T00:52:32;96861.97;;;17.99;73.26
56719;BME280;42597;40.636;0.278;2023-04-23T00:54:59;96856.56;;;17.05;76.73
56719;BME280;42597;40.636;0.278;2023-04-23T00:57:25;96854.03;;;17.53;75.41
56719;BME280;42597;40.636;0.278;2023-04-23T00:59:51;96859.84;;;17.62;74.24
56719;BME280;42597;40.636;0.278;2023-04-23T01:02:19;96856.72;;;17.60;74.72
56719;BME280;42597;40.636;0.278;2023-04-23T01:04:47;96863.56;;;17.97;73.27
56719;BME280;42597;40.636;0.278;2023-04-23T01:07:15;96854.50;;;17.34;74.62
56719;BME280;42597;40.636;0.278;2023-04-23T01:09:42;96862.84;;;17.89;73.60
56719;BME280;42597;40.636;0.278;2023-04-23T01:12:08;96866.56;;;17.43;73.99
56719;BME280;42597;40.636;0.278;2023-04-23T01:14:36;96865.44;;;17.34;75.87
56719;BME280;42597;40.636;0.278;2023-04-23T01:17:03;96858.22;;;16.77;77.79
56719;BME280;42597;40.636;0.278;2023-04-23T01:19:29;96859.72;;;16.92;77.51
56719;BME280;42597;40.636;0.278;2023-04-23T01:21:55;96856.19;;;16.92;77.61
56719;BME280;42597;40.636;0.278;2023-04-23T01:24:26;96867.88;;;17.03;77.12
56719;BME280;42597;40.636;0.278;2023-04-23T01:26:53;96864.41;;;16.70;79.03
56719;BME280;42597;40.636;0.278;2023-04-23T01:29:20;96858.56;;;16.90;77.59
56719;BME280;42597;40.636;0.278;2023-04-23T01:31:46;96864.41;;;16.70;78.86
56719;BME280;42597;40.636;0.278;2023-04-23T01:34:13;96864.81;;;16.87;78.05
56719;BME280;42597;40.636;0.278;2023-04-23T01:36:40;96859.34;;;16.87;77.80
56719;BME280;42597;40.636;0.278;2023-04-23T01:39:06;96859.38;;;16.22;80.66
56719;BME280;42597;40.636;0.278;2023-04-23T01:41:33;96859.38;;;16.15;81.34
56719;BME280;42597;40.636;0.278;2023-04-23T01:44:00;96860.94;;;16.38;81.66
56719;BME280;42597;40.636;0.278;2023-04-23T01:46:26;96857.84;;;16.21;81.00
56719;BME280;42597;40.636;0.278;2023-04-23T01:48:52;96863.09;;;15.36;85.31
56719;BME280;42597;40.636;0.278;2023-04-23T01:51:18;96870.66;;;14.91;88.76
56719;BME280;42597;40.636;0.278;2023-04-23T01:53:44;96862.81;;;14.78;89.38
56719;BME280;42597;40.636;0.278;2023-04-23T01:56:10;96865.22;;;14.91;89.20
56719;BME280;42597;40.636;0.278;2023-04-23T01:58:36;96869.03;;;14.75;89.89
56719;BME280;42597;40.636;0.278;2023-04-23T02:01:02;96863.66;;;14.90;90.28
56719;BME280;42597;40.636;0.278;2023-04-23T02:03:28;96864.53;;;15.08;88.16
56719;BME280;42597;40.636;0.278;2023-04-23T02:05:58;96862.47;;;15.78;85.97
56719;BME280;42597;40.636;0.278;2023-04-23T02:08:26;96867.13;;;15.92;83.22
56719;BME280;42597;40.636;0.278;2023-04-23T02:10:52;96861.28;;;15.83;84.00
56719;BME280;42597;40.636;0.278;2023-04-23T02:13:18;96871.78;;;15.66;84.08
56719;BME280;42597;40.636;0.278;2023-04-23T02:15:43;96867.94;;;16.03;83.27
56719;BME280;42597;40.636;0.278;2023-04-23T02:18:09;96864.84;;;16.15;81.35
56719;BME280;42597;40.636;0.278;2023-04-23T02:20:35;96870.66;;;16.64;79.88
56719;BME280;42597;40.636;0.278;2023-04-23T02:23:08;96874.19;;;16.50;79.93
56719;BME280;42597;40.636;0.278;2023-04-23T02:25:35;96866.41;;;16.73;79.32
56719;BME280;42597;40.636;0.278;2023-04-23T02:28:04;96878.09;;;16.42;78.78
56719;BME280;42597;40.636;0.278;2023-04-23T02:30:34;96883.50;;;16.56;80.07
56719;BME280;42597;40.636;0.278;2023-04-23T02:33:00;96875.72;;;16.54;79.18
56719;BME280;42597;40.636;0.278;2023-04-23T02:35:26;96878.84;;;16.82;78.21
56719;BME280;42597;40.636;0.278;2023-04-23T02:37:52;96882.34;;;16.82;78.18
56719;BME280;42597;40.636;0.278;2023-04-23T02:40:19;96873.66;;;17.26;76.71
56719;BME280;42597;40.636;0.278;2023-04-23T02:42:44;96886.66;;;16.51;77.87
56719;BME280;42597;40.636;0.278;2023-04-23T02:45:11;96893.63;;;16.88;78.29
56719;BME280;42597;40.636;0.278;2023-04-23T02:47:37;96895.97;;;16.68;78.30
56719;BME280;42597;40.636;0.278;2023-04-23T02:50:04;96899.13;;;16.45;78.42
56719;BME280;42597;40.636;0.278;2023-04-23T02:52:31;96899.88;;;16.63;77.46
56719;BME280;42597;40.636;0.278;2023-04-23T02:54:58;96890.53;;;16.46;78.75
56719;BME280;42597;40.636;0.278;2023-04-23T02:57:23;96889.34;;;16.94;77.79
56719;BME280;42597;40.636;0.278;2023-04-23T02:59:49;96901.75;;;15.73;82.26
56719;BME280;42597;40.636;0.278;2023-04-23T03:02:15;96909.22;;;16.12;81.51
56719;BME280;42597;40.636;0.278;2023-04-23T03:04:41;96904.53;;;16.95;77.91
56719;BME280;42597;40.636;0.278;2023-04-23T03:07:07;96916.94;;;15.74;80.80
56719;BME280;42597;40.636;0.278;2023-04-23T03:09:33;96910.78;;;16.13;81.00
56719;BME280;42597;40.636;0.278;2023-04-23T03:11:58;96917.56;;;15.36;83.11
56719;BME280;42597;40.636;0.278;2023-04-23T03:14:24;96921.66;;;15.99;83.17
56719;BME280;42597;40.636;0.278;2023-04-23T03:16:50;96914.31;;;16.53;78.59
56719;BME280;42597;40.636;0.278;2023-04-23T03:19:16;96914.69;;;16.91;77.90
56719;BME280;42597;40.636;0.278;2023-04-23T03:21:42;96926.34;;;16.06;79.20
56719;BME280;42597;40.636;0.278;2023-04-23T03:24:11;96917.78;;;17.00;76.51
56719;BME280;42597;40.636;0.278;2023-04-23T03:26:37;96923.25;;;16.18;78.74
56719;BME280;42597;40.636;0.278;2023-04-23T03:29:02;96927.06;;;15.77;80.73
56719;BME280;42597;40.636;0.278;2023-04-23T03:31:30;96922.41;;;15.89;80.39
56719;BME280;42597;40.636;0.278;2023-04-23T03:33:56;96923.94;;;15.68;80.36
56719;BME280;42597;40.636;0.278;2023-04-23T03:36:21;96925.72;;;15.36;81.89
56719;BME280;42597;40.636;0.278;2023-04-23T03:38:47;96925.41;;;15.62;80.13
56719;BME280;42597;40.636;0.278;2023-04-23T03:41:13;96927.50;;;15.06;82.34
56719;BME280;42597;40.636;0.278;2023-04-23T03:43:39;96914.94;;;14.91;83.61
56719;BME280;42597;40.636;0.278;2023-04-23T03:46:04;96914.28;;;15.09;81.50
56719;BME280;42597;40.636;0.278;2023-04-23T03:48:31;96901.38;;;15.68;80.09
56719;BME280;42597;40.636;0.278;2023-04-23T03:50:57;96915.25;;;15.45;77.74
56719;BME280;42597;40.636;0.278;2023-04-23T03:53:23;96902.63;;;16.13;78.35
56719;BME280;42597;40.636;0.278;2023-04-23T03:55:48;96895.81;;;15.53;73.71
56719;BME280;42597;40.636;0.278;2023-04-23T03:58:14;96895.66;;;15.14;74.63
56719;BME280;42597;40.636;0.278;2023-04-23T04:00:40;96894.28;;;15.63;74.90
56719;BME280;42597;40.636;0.278;2023-04-23T04:03:06;96890.97;;;15.04;72.72
56719;BME280;42597;40.636;0.278;2023-04-23T04:05:34;96897.94;;;15.01;71.84
56719;BME280;42597;40.636;0.278;2023-04-23T04:07:59;96909.31;;;15.21;71.00
56719;BME280;42597;40.636;0.278;2023-04-23T04:10:26;96902.38;;;14.65;72.99
56719;BME280;42597;40.636;0.278;2023-04-23T04:12:52;96907.81;;;14.65;73.17
56719;BME280;42597;40.636;0.278;2023-04-23T04:15:19;96906.69;;;14.73;72.31
56719;BME280;42597;40.636;0.278;2023-04-23T04:17:46;96904.25;;;15.27;73.42
56719;BME280;42597;40.636;0.278;2023-04-23T04:20:12;96906.97;;;15.23;69.63
56719;BME280;42597;40.636;0.278;2023-04-23T04:22:38;96902.81;;;15.51;69.30
56719;BME280;42597;40.636;0.278;2023-04-23T04:25:04;96912.69;;;15.00;66.94
56719;BME280;42597;40.636;0.278;2023-04-23T04:27:31;96907.19;;;14.90;67.65
56719;BME280;42597;40.636;0.278;2023-04-23T04:30:00;96897.72;;;14.69;70.39
56719;BME280;42597;40.636;0.278;2023-04-23T04:32:27;96917.03;;;14.53;70.14
56719;BME280;42597;40.636;0.278;2023-04-23T04:34:52;96911.69;;;14.64;68.82
56719;BME280;42597;40.636;0.278;2023-04-23T04:37:18;96906.34;;;14.82;66.73
56719;BME280;42597;40.636;0.278;2023-04-23T04:39:45;96913.47;;;15.01;66.82
56719;BME280;42597;40.636;0.278;2023-04-23T04:42:11;96907.88;;;14.76;62.93
56719;BME280;42597;40.636;0.278;2023-04-23T04:44:37;96912.63;;;14.90;62.46
56719;BME280;42597;40.636;0.278;2023-04-23T04:47:04;96914.78;;;14.66;61.07
56719;BME280;42597;40.636;0.278;2023-04-23T04:49:31;96902.75;;;14.67;60.46
56719;BME280;42597;40.636;0.278;2023-04-23T04:51:57;96909.34;;;14.66;59.81
56719;BME280;42597;40.636;0.278;2023-04-23T04:54:22;96911.91;;;14.96;60.28
56719;BME280;42597;40.636;0.278;2023-04-23T04:56:48;96911.78;;;14.78;57.99
56719;BME280;42597;40.636;0.278;2023-04-23T04:59:14;96919.59;;;14.87;56.19
56719;BME280;42597;40.636;0.278;2023-04-23T05:01:40;96920.09;;;15.03;54.42
56719;BME280;42597;40.636;0.278;2023-04-23T05:04:06;96923.56;;;14.97;54.33
56719;BME280;42597;40.636;0.278;2023-04-23T05:06:32;96923.44;;;14.79;51.88
56719;BME280;42597;40.636;0.278;2023-04-23T05:08:58;96930.75;;;15.34;48.65
56719;BME280;42597;40.636;0.278;2023-04-23T05:11:23;96943.16;;;15.24;50.15
56719;BME280;42597;40.636;0.278;2023-04-23T05:13:50;96941.84;;;15.00;50.05
56719;BME280;42597;40.636;0.278;2023-04-23T05:16:16;96940.41;;;15.20;49.72
56719;BME280;42597;40.636;0.278;2023-04-23T05:18:42;96940.41;;;15.20;50.01
56719;BME280;42597;40.636;0.278;2023-04-23T05:21:08;96947.72;;;15.09;48.01
56719;BME280;42597;40.636;0.278;2023-04-23T05:23:34;96941.81;;;15.66;51.66
56719;BME280;42597;40.636;0.278;2023-04-23T05:26:01;96947.84;;;15.30;52.16
56719;BME280;42597;40.636;0.278;2023-04-23T05:28:29;96941.03;;;15.69;58.85
56719;BME280;42597;40.636;0.278;2023-04-23T05:30:55;96947.31;;;15.76;55.44
56719;BME280;42597;40.636;0.278;2023-04-23T05:33:21;96954.78;;;16.04;59.46
56719;BME280;42597;40.636;0.278;2023-04-23T05:35:47;96950.47;;;16.00;59.12
56719;BME280;42597;40.636;0.278;2023-04-23T05:38:13;96951.63;;;15.99;60.77
56719;BME280;42597;40.636;0.278;2023-04-23T05:40:39;96957.16;;;15.29;60.19
56719;BME280;42597;40.636;0.278;2023-04-23T05:43:04;96968.88;;;15.37;57.54
56719;BME280;42597;40.636;0.278;2023-04-23T05:45:30;96965.19;;;15.77;57.91
56719;BME280;42597;40.636;0.278;2023-04-23T05:47:56;96967.31;;;15.33;58.74
56719;BME280;42597;40.636;0.278;2023-04-23T05:50:22;96971.00;;;15.03;58.49
56719;BME280;42597;40.636;0.278;2023-04-23T05:52:48;96976.56;;;15.21;57.92
56719;BME280;42597;40.636;0.278;2023-04-23T05:55:13;96983.47;;;15.73;57.99
56719;BME280;42597;40.636;0.278;2023-04-23T05:57:43;96979.25;;;15.94;58.65
56719;BME280;42597;40.636;0.278;2023-04-23T06:00:09;96993.09;;;15.57;62.27
56719;BME280;42597;40.636;0.278;2023-04-23T06:02:36;96984.13;;;15.52;64.14
56719;BME280;42597;40.636;0.278;2023-04-23T06:05:03;96986.50;;;14.99;62.57
56719;BME280;42597;40.636;0.278;2023-04-23T06:07:28;96989.09;;;15.33;63.65
56719;BME280;42597;40.636;0.278;2023-04-23T06:09:54;96992.31;;;15.56;63.63
56719;BME280;42597;40.636;0.278;2023-04-23T06:12:20;96998.22;;;15.65;66.11
56719;BME280;42597;40.636;0.278;2023-04-23T06:14:45;96999.84;;;15.77;66.69
56719;BME280;42597;40.636;0.278;2023-04-23T06:17:12;97001.56;;;15.41;66.78
56719;BME280;42597;40.636;0.278;2023-04-23T06:19:38;97000.81;;;15.47;65.08
56719;BME280;42597;40.636;0.278;2023-04-23T06:22:04;96999.34;;;15.61;65.05
56719;BME280;42597;40.636;0.278;2023-04-23T06:24:30;96993.13;;;15.60;67.11
56719;BME280;42597;40.636;0.278;2023-04-23T06:26:56;96998.56;;;15.60;63.94
56719;BME280;42597;40.636;0.278;2023-04-23T06:29:22;96997.88;;;15.74;64.09
56719;BME280;42597;40.636;0.278;2023-04-23T06:31:48;97002.53;;;15.73;64.05
56719;BME280;42597;40.636;0.278;2023-04-23T06:34:13;97009.59;;;15.85;65.25
56719;BME280;42597;40.636;0.278;2023-04-23T06:36:39;96999.47;;;15.82;67.69
56719;BME280;42597;40.636;0.278;2023-04-23T06:39:05;96998.25;;;15.72;67.68
56719;BME280;42597;40.636;0.278;2023-04-23T06:41:31;97001.09;;;16.01;66.86
56719;BME280;42597;40.636;0.278;2023-04-23T06:43:57;97006.59;;;16.26;67.04
56719;BME280;42597;40.636;0.278;2023-04-23T06:46:22;96998.00;;;16.13;70.96
56719;BME280;42597;40.636;0.278;2023-04-23T06:48:48;97004.28;;;16.24;74.10
56719;BME280;42597;40.636;0.278;2023-04-23T06:51:14;96999.56;;;16.11;75.78
56719;BME280;42597;40.636;0.278;2023-04-23T06:53:40;96991.31;;;15.86;78.14
56719;BME280;42597;40.636;0.278;2023-04-23T06:56:07;97004.16;;;15.96;75.25
56719;BME280;42597;40.636;0.278;2023-04-23T06:58:32;97005.03;;;16.21;75.61
56719;BME280;42597;40.636;0.278;2023-04-23T07:00:58;96997.25;;;16.23;76.38
56719;BME280;42597;40.636;0.278;2023-04-23T07:03:29;97005.09;;;16.46;75.47
56719;BME280;42597;40.636;0.278;2023-04-23T07:05:55;97001.97;;;16.62;76.42
56719;BME280;42597;40.636;0.278;2023-04-23T07:08:21;97003.91;;;16.54;77.47
56719;BME280;42597;40.636;0.278;2023-04-23T07:10:47;97008.22;;;16.66;78.77
56719;BME280;42597;40.636;0.278;2023-04-23T07:13:13;97002.00;;;16.91;77.98
56719;BME280;42597;40.636;0.278;2023-04-23T07:15:39;96997.31;;;16.84;79.35
56719;BME280;42597;40.636;0.278;2023-04-23T07:18:07;97003.56;;;16.88;80.69
56719;BME280;42597;40.636;0.278;2023-04-23T07:20:33;97007.47;;;16.98;83.84
56719;BME280;42597;40.636;0.278;2023-04-23T07:22:58;97005.94;;;16.97;83.74
56719;BME280;42597;40.636;0.278;2023-04-23T07:25:25;97010.56;;;17.25;83.03
56719;BME280;42597;40.636;0.278;2023-04-23T07:27:52;97012.53;;;17.17;84.31
56719;BME280;42597;40.636;0.278;2023-04-23T07:30:19;97005.13;;;17.18;84.06
56719;BME280;42597;40.636;0.278;2023-04-23T07:32:45;97005.88;;;17.33;83.78
56719;BME280;42597;40.636;0.278;2023-04-23T07:35:11;97004.28;;;17.39;83.49
56719;BME280;42597;40.636;0.278;2023-04-23T07:37:37;97005.84;;;17.36;84.48
56719;BME280;42597;40.636;0.278;2023-04-23T07:40:04;97009.75;;;17.39;86.00
56719;BME280;42597;40.636;0.278;2023-04-23T07:42:30;97002.75;;;17.38;87.35
56719;BME280;42597;40.636;0.278;2023-04-23T07:44:56;97007.38;;;17.55;86.11
56719;BME280;42597;40.636;0.278;2023-04-23T07:47:22;97004.22;;;17.74;86.13
56719;BME280;42597;40.636;0.278;2023-04-23T07:49:48;97000.31;;;17.68;87.14
56719;BME280;42597;40.636;0.278;2023-04-23T07:52:14;97004.28;;;17.53;88.72
56719;BME280;42597;40.636;0.278;2023-04-23T07:54:40;97011.19;;;17.93;86.45
56719;BME280;42597;40.636;0.278;2023-04-23T07:57:06;97012.81;;;17.66;89.71
56719;BME280;42597;40.636;0.278;2023-04-23T07:59:32;97015.94;;;17.75;87.89
56719;BME280;42597;40.636;0.278;2023-04-23T08:01:58;97017.06;;;17.85;85.62
56719;BME280;42597;40.636;0.278;2023-04-23T08:04:24;97023.75;;;17.69;87.30
56719;BME280;42597;40.636;0.278;2023-04-23T08:06:50;97028.03;;;17.67;86.23
56719;BME280;42597;40.636;0.278;2023-04-23T08:09:16;97016.00;;;17.36;90.28
56719;BME280;42597;40.636;0.278;2023-04-23T08:11:42;97023.00;;;17.44;89.62
56719;BME280;42597;40.636;0.278;2023-04-23T08:14:07;97023.72;;;17.80;88.76
56719;BME280;42597;40.636;0.278;2023-04-23T08:16:33;97018.28;;;17.62;90.28
56719;BME280;42597;40.636;0.278;2023-04-23T08:18:59;97021.41;;;17.75;89.35
56719;BME280;42597;40.636;0.278;2023-04-23T08:21:24;97019.78;;;17.92;88.65
56719;BME280;42597;40.636;0.278;2023-04-23T08:23:51;97022.22;;;17.47;89.80
56719;BME280;42597;40.636;0.278;2023-04-23T08:26:17;97017.09;;;17.74;89.41
56719;BME280;42597;40.636;0.278;2023-04-23T08:28:44;97017.19;;;18.37;85.73
56719;BME280;42597;40.636;0.278;2023-04-23T08:31:10;97009.44;;;18.28;87.43
56719;BME280;42597;40.636;0.278;2023-04-23T08:33:36;97010.09;;;18.50;86.54
56719;BME280;42597;40.636;0.278;2023-04-23T08:36:02;97005.56;;;18.25;86.65
56719;BME280;42597;40.636;0.278;2023-04-23T08:38:28;97010.84;;;18.58;85.61
56719;BME280;42597;40.636;0.278;2023-04-23T08:40:56;97010.84;;;18.58;83.37
56719;BME280;42597;40.636;0.278;2023-04-23T08:43:30;97021.69;;;18.68;82.48
56719;BME280;42597;40.636;0.278;2023-04-23T08:46:01;97019.19;;;18.33;83.40
56719;BME280;42597;40.636;0.278;2023-04-23T08:48:29;97023.88;;;18.29;83.93
56719;BME280;42597;40.636;0.278;2023-04-23T08:50:56;97011.06;;;18.22;86.05
56719;BME280;42597;40.636;0.278;2023-04-23T08:53:25;97012.41;;;18.55;85.22
56719;BME280;42597;40.636;0.278;2023-04-23T08:55:57;97011.38;;;18.94;85.17
56719;BME280;42597;40.636;0.278;2023-04-23T08:58:24;97007.53;;;18.84;85.51
56719;BME280;42597;40.636;0.278;2023-04-23T09:00:53;97001.91;;;19.02;83.90
56719;BME280;42597;40.636;0.278;2023-04-23T09:03:20;96998.75;;;19.07;84.64
56719;BME280;42597;40.636;0.278;2023-04-23T09:05:48;97001.66;;;19.31;85.26
56719;BME280;42597;40.636;0.278;2023-04-23T09:08:15;96999.88;;;19.51;82.48
56719;BME280;42597;40.636;0.278;2023-04-23T09:10:41;97003.19;;;19.32;83.13
56719;BME280;42597;40.636;0.278;2023-04-23T09:13:08;96997.50;;;19.53;80.46
56719;BME280;42597;40.636;0.278;2023-04-23T09:15:34;97002.16;;;19.56;81.55
56719;BME280;42597;40.636;0.278;2023-04-23T09:18:03;97001.03;;;19.12;80.83
56719;BME280;42597;40.636;0.278;2023-04-23T09:20:28;96995.88;;;19.63;80.51
56719;BME280;42597;40.636;0.278;2023-04-23T09:22:54;97001.63;;;19.72;80.81
56719;BME280;42597;40.636;0.278;2023-04-23T09:25:22;97000.22;;;19.91;78.00
56719;BME280;42597;40.636;0.278;2023-04-23T09:27:50;97012.06;;;19.84;76.29
56719;BME280;42597;40.636;0.278;2023-04-23T09:30:16;97004.63;;;19.81;77.07
56719;BME280;42597;40.636;0.278;2023-04-23T09:32:44;97007.84;;;20.10;75.69
56719;BME280;42597;40.636;0.278;2023-04-23T09:35:15;97010.75;;;20.27;69.91
56719;BME280;42597;40.636;0.278;2023-04-23T09:37:51;97009.03;;;20.06;69.10
56719;BME280;42597;40.636;0.278;2023-04-23T09:40:21;97008.06;;;19.89;73.79
56719;BME280;42597;40.636;0.278;2023-04-23T09:42:51;97005.44;;;20.12;68.40
56719;BME280;42597;40.636;0.278;2023-04-23T09:45:19;97009.63;;;20.20;70.61
56719;BME280;42597;40.636;0.278;2023-04-23T09:47:53;97009.53;;;19.97;67.93
56719;BME280;42597;40.636;0.278;2023-04-23T09:50:31;97006.88;;;19.90;67.76
56719;BME280;42597;40.636;0.278;2023-04-23T09:52:57;97018.88;;;20.03;67.98
56719;BME280;42597;40.636;0.278;2023-04-23T09:55:27;97011.75;;;20.09;70.06
56719;BME280;42597;40.636;0.278;2023-04-23T09:57:57;97006.00;;;20.00;71.18
56719;BME280;42597;40.636;0.278;2023-04-23T10:00:22;97006.03;;;20.27;73.10
56719;BME280;42597;40.636;0.278;2023-04-23T10:02:51;97003.59;;;20.33;71.46
56719;BME280;42597;40.636;0.278;2023-04-23T10:05:21;97008.78;;;20.27;72.86
56719;BME280;42597;40.636;0.278;2023-04-23T10:07:47;97006.72;;;20.35;72.56
56719;BME280;42597;40.636;0.278;2023-04-23T10:10:18;97015.03;;;20.28;75.02
56719;BME280;42597;40.636;0.278;2023-04-23T10:12:45;97015.38;;;20.30;73.95
56719;BME280;42597;40.636;0.278;2023-04-23T10:15:12;97011.94;;;19.95;73.86
56719;BME280;42597;40.636;0.278;2023-04-23T10:17:39;97016.66;;;19.94;72.20
56719;BME280;42597;40.636;0.278;2023-04-23T10:20:06;97015.69;;;20.08;73.68
56719;BME280;42597;40.636;0.278;2023-04-23T10:22:34;97003.47;;;20.13;76.07
56719;BME280;42597;40.636;0.278;2023-04-23T10:25:03;97013.31;;;20.10;75.98
56719;BME280;42597;40.636;0.278;2023-04-23T10:27:37;97022.44;;;20.31;75.08
56719;BME280;42597;40.636;0.278;2023-04-23T10:30:05;97023.63;;;19.99;76.41
56719;BME280;42597;40.636;0.278;2023-04-23T10:32:35;97018.47;;;20.05;76.30
56719;BME280;42597;40.636;0.278;2023-04-23T10:35:01;97014.81;;;20.15;75.64
56719;BME280;42597;40.636;0.278;2023-04-23T10:37:27;97017.06;;;20.24;74.79
56719;BME280;42597;40.636;0.278;2023-04-23T10:39:55;97019.06;;;20.19;75.33
56719;BME280;42597;40.636;0.278;2023-04-23T10:42:23;97017.00;;;20.27;73.90
56719;BME280;42597;40.636;0.278;2023-04-23T10:44:55;97017.38;;;19.99;73.72
56719;BME280;42597;40.636;0.278;2023-04-23T10:47:22;97016.59;;;20.29;73.37
56719;BME280;42597;40.636;0.278;2023-04-23T10:49:48;97024.09;;;20.25;74.44
56719;BME280;42597;40.636;0.278;2023-04-23T10:52:15;97022.47;;;19.96;75.50
56719;BME280;42597;40.636;0.278;2023-04-23T10:54:48;97007.03;;;20.10;75.96
56719;BME280;42597;40.636;0.278;2023-04-23T10:57:14;97016.22;;;20.27;75.21
56719;BME280;42597;40.636;0.278;2023-04-23T11:00:00;97023.91;;;20.39;74.20
56719;BME280;42597;40.636;0.278;2023-04-23T11:02:42;97024.72;;;20.05;75.43
56719;BME280;42597;40.636;0.278;2023-04-23T11:05:09;97008.88;;;19.52;78.39
56719;BME280;42597;40.636;0.278;2023-04-23T11:07:34;97006.44;;;19.95;76.59
56719;BME280;42597;40.636;0.278;2023-04-23T11:10:11;97011.81;;;20.63;73.79
56719;BME280;42597;40.636;0.278;2023-04-23T11:12:38;97009.56;;;20.58;73.84
56719;BME280;42597;40.636;0.278;2023-04-23T11:15:14;97000.13;;;20.29;74.74
56719;BME280;42597;40.636;0.278;2023-04-23T11:20:18;96993.66;;;20.69;70.94
56719;BME280;42597;40.636;0.278;2023-04-23T11:22:49;97014.38;;;20.51;72.10
56719;BME280;42597;40.636;0.278;2023-04-23T11:25:25;97007.16;;;20.60;71.31
56719;BME280;42597;40.636;0.278;2023-04-23T11:27:53;97005.13;;;20.34;70.83
56719;BME280;42597;40.636;0.278;2023-04-23T11:30:24;97002.13;;;20.55;69.92
56719;BME280;42597;40.636;0.278;2023-04-23T11:32:52;96994.03;;;20.72;69.68
56719;BME280;42597;40.636;0.278;2023-04-23T11:35:21;96997.41;;;20.83;68.58
56719;BME280;42597;40.636;0.278;2023-04-23T11:37:48;96995.59;;;20.96;66.76
56719;BME280;42597;40.636;0.278;2023-04-23T11:40:16;97004.19;;;20.98;65.45
56719;BME280;42597;40.636;0.278;2023-04-23T11:42:47;96999.31;;;21.09;62.67
56719;BME280;42597;40.636;0.278;2023-04-23T11:45:18;96985.09;;;20.91;64.22
56719;BME280;42597;40.636;0.278;2023-04-23T11:47:45;96980.44;;;21.11;66.08
56719;BME280;42597;40.636;0.278;2023-04-23T11:50:23;96990.13;;;20.42;68.94
56719;BME280;42597;40.636;0.278;2023-04-23T11:52:50;96993.41;;;20.87;67.76
56719;BME280;42597;40.636;0.278;2023-04-23T11:55:17;96991.44;;;21.11;67.21
56719;BME280;42597;40.636;0.278;2023-04-23T11:57:48;96982.91;;;21.26;67.60
56719;BME280;42597;40.636;0.278;2023-04-23T12:00:25;96983.41;;;20.97;69.11
56719;BME280;42597;40.636;0.278;2023-04-23T12:02:55;96982.47;;;21.07;69.10
56719;BME280;42597;40.636;0.278;2023-04-23T12:05:28;96987.59;;;21.29;67.12
56719;BME280;42597;40.636;0.278;2023-04-23T12:08:08;96980.78;;;21.37;66.44
56719;BME280;42597;40.636;0.278;2023-04-23T12:13:18;96969.53;;;21.51;69.39
56719;BME280;42597;40.636;0.278;2023-04-23T12:18:11;96969.53;;;21.51;60.56
56719;BME280;42597;40.636;0.278;2023-04-23T12:20:37;96958.03;;;21.36;67.90
56719;BME280;42597;40.636;0.278;2023-04-23T12:23:05;96961.06;;;21.62;69.93
56719;BME280;42597;40.636;0.278;2023-04-23T12:25:32;96975.50;;;21.23;68.98
56719;BME280;42597;40.636;0.278;2023-04-23T12:27:58;96953.88;;;21.48;68.53
56719;BME280;42597;40.636;0.278;2023-04-23T12:30:29;96953.25;;;21.40;70.33
56719;BME280;42597;40.636;0.278;2023-04-23T12:32:59;96957.69;;;21.54;70.59
56719;BME280;42597;40.636;0.278;2023-04-23T12:35:48;96946.13;;;21.43;69.25
56719;BME280;42597;40.636;0.278;2023-04-23T12:38:25;96941.81;;;21.42;69.82
56719;BME280;42597;40.636;0.278;2023-04-23T12:40:52;96939.22;;;21.35;69.75
56719;BME280;42597;40.636;0.278;2023-04-23T12:43:18;96934.16;;;21.53;69.95
56719;BME280;42597;40.636;0.278;2023-04-23T12:45:44;96940.53;;;21.47;70.54
56719;BME280;42597;40.636;0.278;2023-04-23T12:48:10;96932.47;;;21.59;67.88
56719;BME280;42597;40.636;0.278;2023-04-23T12:50:36;96926.09;;;21.62;68.18
56719;BME280;42597;40.636;0.278;2023-04-23T12:53:02;96937.91;;;21.43;70.62
56719;BME280;42597;40.636;0.278;2023-04-23T12:55:28;96931.78;;;21.32;69.84
56719;BME280;42597;40.636;0.278;2023-04-23T12:57:54;96930.19;;;21.34;70.12
56719;BME280;42597;40.636;0.278;2023-04-23T13:00:21;96921.59;;;21.52;70.10
56719;BME280;42597;40.636;0.278;2023-04-23T13:02:47;96931.78;;;21.32;70.38
56719;BME280;42597;40.636;0.278;2023-04-23T13:05:12;96925.28;;;21.22;70.18
56719;BME280;42597;40.636;0.278;2023-04-23T13:07:38;96921.41;;;21.43;69.79